Time;durP1;ratioP1;P1;durP2;ratioP2;P2;SDS_P1;SDS_P2;PMS_P1;PMS_P2;Temp;Humidity;BMP_temperature;BMP_pressure;BME280_temperature;BME280_humidity;BME280_pressure;Samples;Min_cycle;Max_cycle;Signal;HPM_P1;HPM_P2
2022/09/30 00:01:53;;;;;;;3.72;3.30;;;10.80;61.60;;;;;;5050985;28;20025;-75
2022/09/30 00:04:22;;;;;;;3.58;3.28;;;10.70;61.40;;;;;;5047109;28;20066;-75
2022/09/30 00:06:50;;;;;;;3.83;3.42;;;10.70;61.40;;;;;;5049634;28;20412;-75
2022/09/30 00:09:18;;;;;;;3.83;3.53;;;10.70;61.60;;;;;;5051514;28;20095;-75
2022/09/30 00:11:45;;;;;;;3.38;3.08;;;10.70;61.60;;;;;;5039801;28;20033;-74
2022/09/30 00:14:17;;;;;;;3.10;2.90;;;10.60;61.40;;;;;;5051301;28;20050;-76
2022/09/30 00:16:48;;;;;;;5.03;3.70;;;10.60;61.40;;;;;;5042897;28;20487;-75
2022/09/30 00:19:16;;;;;;;5.50;3.50;;;10.60;61.40;;;;;;5045281;28;20028;-75
2022/09/30 00:21:42;;;;;;;4.20;3.50;;;10.60;61.50;;;;;;5014349;28;20484;-76
2022/09/30 00:24:07;;;;;;;3.83;3.42;;;10.50;61.30;;;;;;5050474;28;20511;-77
2022/09/30 00:26:34;;;;;;;4.47;3.63;;;10.50;61.30;;;;;;5046328;28;20029;-76
2022/09/30 00:29:01;;;;;;;4.50;3.53;;;10.50;61.30;;;;;;5041750;28;20052;-77
2022/09/30 00:31:32;;;;;;;4.22;3.15;;;10.50;61.40;;;;;;5045942;28;20029;-75
2022/09/30 00:34:06;;;;;;;3.50;3.20;;;10.50;61.40;;;;;;5017473;28;20048;-75
2022/09/30 00:36:36;;;;;;;3.78;3.40;;;10.40;61.30;;;;;;5046991;28;20041;-75
2022/09/30 00:39:04;;;;;;;3.13;2.83;;;10.40;61.30;;;;;;5044753;28;20391;-75
2022/09/30 00:41:30;;;;;;;3.40;3.10;;;10.40;61.40;;;;;;5046440;28;20024;-77
2022/09/30 00:43:56;;;;;;;4.40;3.33;;;10.30;61.20;;;;;;5026620;28;20033;-76
2022/09/30 00:46:38;;;;;;;4.07;3.67;;;10.30;61.30;;;;;;5048461;28;20523;-74
2022/09/30 00:49:18;;;;;;;3.28;3.00;;;10.20;61.20;;;;;;5046405;28;20045;-75
2022/09/30 00:51:55;;;;;;;3.45;3.15;;;10.20;61.20;;;;;;5044353;28;20601;-75
2022/09/30 00:54:30;;;;;;;3.67;3.33;;;10.20;61.20;;;;;;5041559;28;20048;-76
2022/09/30 00:57:00;;;;;;;3.72;3.35;;;10.20;61.30;;;;;;5045208;28;20040;-75
2022/09/30 00:59:32;;;;;;;3.75;3.45;;;10.10;61.10;;;;;;5053560;28;20049;-76
2022/09/30 01:02:00;;;;;;;4.65;3.78;;;10.10;61.20;;;;;;5041414;28;20416;-75
2022/09/30 01:04:30;;;;;;;4.60;4.20;;;10.10;61.20;;;;;;5048252;28;20036;-76
2022/09/30 01:07:00;;;;;;;3.92;3.63;;;10.00;61.10;;;;;;5050785;28;20021;-75
2022/09/30 01:09:27;;;;;;;4.28;3.63;;;10.00;61.10;;;;;;5046342;28;20055;-74
2022/09/30 01:11:53;;;;;;;4.05;3.65;;;10.00;61.10;;;;;;5052360;28;20036;-76
2022/09/30 01:14:26;;;;;;;4.10;3.80;;;10.00;61.20;;;;;;5049165;28;20040;-76
2022/09/30 01:16:58;;;;;;;;;;;10.00;61.20;;;;;;5046510;28;20033;-76
2022/09/30 01:19:50;;;;;;;4.18;3.78;;;10.00;61.20;;;;;;5040685;28;19908;-75
2022/09/30 01:22:25;;;;;;;3.55;3.25;;;9.90;60.90;;;;;;5043317;28;20033;-75
2022/09/30 01:25:14;;;;;;;3.58;2.95;;;9.90;60.90;;;;;;5046279;28;20578;-74
2022/09/30 01:28:19;;;;;;;3.13;2.83;;;9.90;61.00;;;;;;5042050;28;20442;-75
2022/09/30 01:31:13;;;;;;;3.00;2.75;;;9.90;61.00;;;;;;5046736;28;20094;-75
2022/09/30 01:34:09;;;;;;;3.35;3.05;;;9.90;60.90;;;;;;5047028;28;20031;-75
2022/09/30 01:36:50;;;;;;;3.67;3.03;;;9.80;60.80;;;;;;5051353;28;20037;-74
2022/09/30 01:39:43;;;;;;;3.30;3.00;;;9.80;60.80;;;;;;5046222;28;20029;-76
2022/09/30 01:42:09;;;;;;;3.03;2.83;;;9.80;60.90;;;;;;5034558;28;20029;-75
2022/09/30 01:44:52;;;;;;;3.78;3.17;;;9.70;60.70;;;;;;5047327;28;20112;-74
2022/09/30 01:47:30;;;;;;;3.55;3.22;;;9.70;60.80;;;;;;5048475;28;20045;-75
2022/09/30 01:50:03;;;;;;;3.97;3.63;;;9.70;60.90;;;;;;5034705;28;20032;-74
2022/09/30 01:52:43;;;;;;;3.78;3.47;;;9.60;60.70;;;;;;5062049;28;20074;-74
2022/09/30 01:55:26;;;;;;;3.72;3.42;;;9.60;60.80;;;;;;5054365;28;20102;-75
2022/09/30 01:58:04;;;;;;;3.42;3.13;;;9.60;60.90;;;;;;5053276;28;20041;-75
2022/09/30 02:00:35;;;;;;;4.15;3.65;;;9.60;60.90;;;;;;5052065;28;20041;-76
2022/09/30 02:03:10;;;;;;;3.88;3.58;;;9.50;60.70;;;;;;5062914;28;20027;-75
2022/09/30 02:05:52;;;;;;;3.33;3.13;;;9.50;60.80;;;;;;5065306;28;20028;-75
2022/09/30 02:08:30;;;;;;;4.00;3.40;;;9.50;60.90;;;;;;5049444;28;20052;-74
2022/09/30 02:11:05;;;;;;;3.40;3.10;;;9.50;60.90;;;;;;5058805;28;20123;-77
2022/09/30 02:13:36;;;;;;;3.42;3.15;;;9.50;60.90;;;;;;5056806;28;20175;-76
2022/09/30 02:16:11;;;;;;;3.78;3.45;;;9.50;60.90;;;;;;5062969;28;20047;-76
2022/09/30 02:18:52;;;;;;;3.92;3.50;;;9.50;60.90;;;;;;5055696;28;20093;-75
2022/09/30 02:21:23;;;;;;;3.47;3.17;;;9.50;60.90;;;;;;5037408;28;20034;-75
2022/09/30 02:23:54;;;;;;;3.33;3.03;;;9.40;60.70;;;;;;5053613;28;20047;-75
2022/09/30 02:26:25;;;;;;;3.58;3.28;;;9.40;60.70;;;;;;5054185;28;20033;-75
2022/09/30 02:29:05;;;;;;;3.97;3.67;;;9.40;60.70;;;;;;5063884;28;20063;-74
2022/09/30 02:31:34;;;;;;;3.95;3.10;;;9.30;60.50;;;;;;5030230;28;20037;-76
2022/09/30 02:34:09;;;;;;;3.83;3.53;;;9.30;60.50;;;;;;5052784;28;20036;-73
2022/09/30 02:36:45;;;;;;;3.90;3.50;;;9.30;60.80;;;;;;5063868;28;20660;-75
2022/09/30 02:39:36;;;;;;;3.30;3.05;;;9.30;60.70;;;;;;5067157;28;20338;-76
2022/09/30 02:42:10;;;;;;;4.18;3.78;;;9.30;60.80;;;;;;5051752;28;20481;-76
2022/09/30 02:44:37;;;;;;;4.60;4.18;;;9.30;60.70;;;;;;5065726;28;20028;-75
2022/09/30 02:47:18;;;;;;;4.18;3.83;;;9.20;60.60;;;;;;5060589;28;20524;-76
2022/09/30 02:49:57;;;;;;;4.40;4.00;;;9.30;60.80;;;;;;5047759;28;20068;-76
2022/09/30 02:52:55;;;;;;;4.30;3.92;;;9.20;60.70;;;;;;5051063;28;20119;-75
2022/09/30 03:08:37;;;;;;;4.70;4.30;;;9.20;60.70;;;;;;5048716;28;20071;-76
2022/09/30 03:11:04;;;;;;;5.28;4.63;;;9.20;60.50;;;;;;5057388;28;20317;-75
2022/09/30 03:13:42;;;;;;;5.20;4.70;;;9.20;60.60;;;;;;5037073;28;20091;-76
2022/09/30 03:16:43;;;;;;;4.82;4.38;;;9.20;60.80;;;;;;5051138;28;20039;-76
2022/09/30 03:19:27;;;;;;;4.35;3.95;;;9.10;60.70;;;;;;5046275;28;20037;-75
2022/09/30 03:22:26;;;;;;;4.90;4.50;;;9.10;60.60;;;;;;5047086;28;20028;-76
2022/09/30 03:25:14;;;;;;;5.15;4.35;;;9.10;60.70;;;;;;5058676;28;20025;-76
2022/09/30 03:28:07;;;;;;;4.38;4.07;;;9.10;60.70;;;;;;5060346;28;20036;-75
2022/09/30 03:30:45;;;;;;;5.00;4.60;;;9.10;60.80;;;;;;5051607;28;20037;-75
2022/09/30 03:33:25;;;;;;;4.60;4.25;;;9.10;61.10;;;;;;5051767;28;20037;-75
2022/09/30 03:36:06;;;;;;;5.15;4.65;;;9.00;60.60;;;;;;5043473;28;20029;-75
2022/09/30 03:38:46;;;;;;;5.75;5.20;;;9.00;60.70;;;;;;5050919;28;20576;-76
2022/09/30 03:41:54;;;;;;;5.32;4.85;;;9.00;60.70;;;;;;5052171;28;20031;-76
2022/09/30 03:44:44;;;;;;;5.60;5.10;;;9.00;60.80;;;;;;5046308;28;20578;-75
2022/09/30 03:47:13;;;;;;;6.28;5.68;;;9.00;60.80;;;;;;5045417;28;20072;-75
2022/09/30 03:49:48;;;;;;;5.95;5.45;;;9.00;60.80;;;;;;5050836;28;20250;-75
2022/09/30 03:52:15;;;;;;;6.45;5.95;;;8.90;60.70;;;;;;5042857;28;20029;-75
2022/09/30 03:54:51;;;;;;;6.55;5.32;;;8.90;60.80;;;;;;5046677;28;20444;-75
2022/09/30 03:57:17;;;;;;;6.53;5.53;;;8.90;60.90;;;;;;5053445;28;20029;-75
2022/09/30 03:59:43;;;;;;;5.55;5.05;;;8.90;60.90;;;;;;5061671;28;20120;-76
2022/09/30 04:02:12;;;;;;;5.53;5.03;;;8.90;60.90;;;;;;5053796;28;20059;-75
2022/09/30 04:04:41;;;;;;;5.85;5.22;;;8.90;60.90;;;;;;5058024;28;20032;-76
2022/09/30 04:07:09;;;;;;;6.13;5.55;;;8.90;60.90;;;;;;5049886;28;20029;-77
2022/09/30 04:09:36;;;;;;;6.13;5.63;;;8.90;60.90;;;;;;5051920;28;20041;-74
2022/09/30 04:12:03;;;;;;;5.75;5.25;;;8.90;60.90;;;;;;5044137;28;20040;-75
2022/09/30 04:14:30;;;;;;;5.97;5.40;;;8.90;60.90;;;;;;5058676;28;20025;-75
2022/09/30 04:16:57;;;;;;;7.57;5.88;;;8.90;61.00;;;;;;5048820;28;20028;-75
2022/09/30 04:19:23;;;;;;;6.78;6.13;;;8.90;61.00;;;;;;5051123;28;20488;-75
2022/09/30 04:21:52;;;;;;;5.85;5.32;;;8.90;61.00;;;;;;5051638;28;20040;-75
2022/09/30 04:24:23;;;;;;;8.55;5.97;;;8.90;61.10;;;;;;5052609;28;20037;-75
2022/09/30 04:26:51;;;;;;;6.70;5.53;;;8.90;61.10;;;;;;5041255;28;20044;-75
2022/09/30 04:29:16;;;;;;;5.68;5.18;;;8.90;61.10;;;;;;5052183;28;20074;-75
2022/09/30 04:31:42;;;;;;;5.13;4.72;;;8.80;60.90;;;;;;5031586;28;20420;-75
2022/09/30 04:34:11;;;;;;;5.18;4.78;;;8.80;61.00;;;;;;5044559;28;20068;-74
2022/09/30 04:36:37;;;;;;;5.25;4.75;;;8.80;60.90;;;;;;5044873;28;20028;-75
2022/09/30 04:39:05;;;;;;;5.05;4.65;;;8.80;61.00;;;;;;5051821;28;20090;-75
2022/09/30 04:41:33;;;;;;;4.85;4.45;;;8.80;61.00;;;;;;5050149;28;20037;-75
2022/09/30 04:43:59;;;;;;;4.95;4.55;;;8.80;61.10;;;;;;5051565;28;20041;-74
2022/09/30 04:46:26;;;;;;;5.00;4.60;;;8.80;61.00;;;;;;5051038;28;20040;-75
2022/09/30 04:48:52;;;;;;;4.90;4.50;;;8.80;61.70;;;;;;5046613;28;20504;-74
2022/09/30 04:51:19;;;;;;;5.38;4.88;;;8.80;61.10;;;;;;5042656;28;20101;-76
2022/09/30 04:53:46;;;;;;;5.55;4.60;;;8.70;61.00;;;;;;5047847;28;20033;-75
2022/09/30 04:56:13;;;;;;;5.13;4.72;;;8.70;61.00;;;;;;5047988;28;20045;-75
2022/09/30 04:58:39;;;;;;;5.50;5.05;;;8.70;61.00;;;;;;5047038;28;20067;-74
2022/09/30 05:01:07;;;;;;;4.85;4.47;;;8.70;61.00;;;;;;5047702;28;20217;-75
2022/09/30 05:03:34;;;;;;;5.10;4.70;;;8.70;61.10;;;;;;5043698;28;20431;-75
2022/09/30 05:06:00;;;;;;;5.63;5.13;;;8.70;61.10;;;;;;5044778;28;20056;-75
2022/09/30 05:08:26;;;;;;;5.40;4.90;;;8.70;61.10;;;;;;5046091;28;20047;-75
2022/09/30 05:11:14;;;;;;;4.97;4.57;;;8.70;61.10;;;;;;5051805;28;20036;-75
2022/09/30 05:13:40;;;;;;;5.28;4.88;;;8.70;61.20;;;;;;5047858;28;20035;-74
2022/09/30 05:16:07;;;;;;;5.75;5.25;;;8.70;61.20;;;;;;5046257;28;20297;-74
2022/09/30 05:18:34;;;;;;;5.22;4.72;;;8.70;61.20;;;;;;5040748;28;20043;-75
2022/09/30 05:21:02;;;;;;;6.05;5.45;;;8.70;61.20;;;;;;5048410;28;20413;-75
2022/09/30 05:23:30;;;;;;;5.75;5.25;;;8.70;61.20;;;;;;5040917;28;20036;-75
2022/09/30 05:25:56;;;;;;;5.72;5.22;;;8.70;61.30;;;;;;5041548;28;20029;-76
2022/09/30 05:28:23;;;;;;;6.40;5.80;;;8.70;61.30;;;;;;5054314;28;20176;-80
2022/09/30 05:30:59;;;;;;;6.68;6.07;;;8.70;61.30;;;;;;5049484;28;20029;-79
2022/09/30 05:33:27;;;;;;;6.78;6.18;;;8.70;61.30;;;;;;5049174;28;20416;-80
2022/09/30 05:35:53;;;;;;;7.88;6.22;;;8.70;61.30;;;;;;5032566;28;20040;-78
2022/09/30 05:38:19;;;;;;;8.38;6.32;;;8.70;61.40;;;;;;5051194;28;20032;-78
2022/09/30 05:40:46;;;;;;;8.18;7.38;;;8.70;61.70;;;;;;5051480;28;20029;-79
2022/09/30 05:43:12;;;;;;;8.07;7.38;;;8.70;61.80;;;;;;5051533;28;20041;-77
2022/09/30 05:45:38;;;;;;;7.22;6.60;;;8.70;61.80;;;;;;5053228;28;20495;-79
2022/09/30 05:48:05;;;;;;;8.48;7.68;;;8.70;61.80;;;;;;5047190;28;20406;-78
2022/09/30 05:50:31;;;;;;;8.40;7.55;;;8.70;61.80;;;;;;5045365;28;20048;-79
2022/09/30 05:52:59;;;;;;;8.40;7.60;;;8.70;61.80;;;;;;5044464;28;20029;-79
2022/09/30 05:55:25;;;;;;;9.20;8.27;;;8.70;61.90;;;;;;5048655;28;20083;-76
2022/09/30 05:57:51;;;;;;;9.65;8.65;;;8.70;61.90;;;;;;5041831;28;20017;-74
2022/09/30 06:00:18;;;;;;;10.18;9.18;;;8.60;61.80;;;;;;5050105;28;20025;-76
2022/09/30 06:02:44;;;;;;;10.00;9.00;;;8.60;61.80;;;;;;5056695;28;20029;-76
2022/09/30 06:05:11;;;;;;;12.05;9.25;;;8.60;61.80;;;;;;5018614;28;20389;-78
2022/09/30 06:07:38;;;;;;;10.18;9.18;;;8.60;61.90;;;;;;5042442;28;20029;-78
2022/09/30 06:10:11;;;;;;;10.48;8.85;;;8.70;62.30;;;;;;5050420;28;20036;-77
2022/09/30 06:12:38;;;;;;;9.50;8.70;;;8.70;62.30;;;;;;5046769;28;20029;-77
2022/09/30 06:15:06;;;;;;;10.55;8.50;;;8.70;62.20;;;;;;5048597;28;20275;-76
2022/09/30 06:17:32;;;;;;;10.38;9.38;;;8.70;62.20;;;;;;5037738;28;20072;-77
2022/09/30 06:19:59;;;;;;;11.65;10.55;;;8.70;62.20;;;;;;5040780;28;20104;-77
2022/09/30 06:22:25;;;;;;;9.63;8.73;;;8.70;62.20;;;;;;5045224;28;20023;-76
2022/09/30 06:24:51;;;;;;;10.70;9.60;;;8.80;62.40;;;;;;5044369;28;20037;-77
2022/09/30 06:27:18;;;;;;;9.75;8.85;;;8.80;62.40;;;;;;5050811;28;20461;-77
2022/09/30 06:29:44;;;;;;;9.27;8.43;;;8.80;62.40;;;;;;5051270;28;20044;-75
2022/09/30 06:32:09;;;;;;;8.88;7.95;;;8.80;63.00;;;;;;5047761;28;20032;-75
2022/09/30 06:34:35;;;;;;;9.52;8.63;;;8.80;62.40;;;;;;5052142;28;20401;-80
2022/09/30 06:37:02;;;;;;;8.23;7.40;;;8.80;62.30;;;;;;5038594;28;20025;-77
2022/09/30 06:39:28;;;;;;;9.93;8.25;;;8.90;62.50;;;;;;5041663;28;20037;-76
2022/09/30 06:41:55;;;;;;;8.18;7.38;;;8.90;62.40;;;;;;5058864;28;20025;-79
2022/09/30 06:44:24;;;;;;;8.95;7.72;;;8.90;62.40;;;;;;5048587;28;20063;-76
2022/09/30 06:46:50;;;;;;;9.60;8.60;;;9.00;62.50;;;;;;5040277;28;20139;-75
2022/09/30 06:49:16;;;;;;;9.13;8.25;;;9.00;62.50;;;;;;5039901;28;20389;-77
2022/09/30 06:51:42;;;;;;;9.32;8.43;;;9.10;62.60;;;;;;5011647;28;20029;-76
2022/09/30 06:54:07;;;;;;;9.75;8.85;;;9.20;62.70;;;;;;5038437;28;20109;-76
2022/09/30 06:56:35;;;;;;;10.43;9.43;;;9.20;62.60;;;;;;5046139;28;20035;-76
2022/09/30 06:59:03;;;;;;;9.55;8.57;;;9.30;62.70;;;;;;5046661;28;20025;-79
2022/09/30 07:01:29;;;;;;;10.15;9.15;;;9.50;62.80;;;;;;5042803;28;20097;-76
2022/09/30 07:03:56;;;;;;;10.48;9.48;;;9.50;62.70;;;;;;5038417;28;20171;-78
2022/09/30 07:06:24;;;;;;;12.13;10.07;;;9.70;62.90;;;;;;5045361;28;20033;-77
2022/09/30 07:08:52;;;;;;;9.93;8.93;;;9.80;63.00;;;;;;5047377;28;20033;-77
2022/09/30 07:11:19;;;;;;;10.32;9.32;;;9.80;62.80;;;;;;5049285;28;20526;-79
2022/09/30 07:13:48;;;;;;;10.10;9.10;;;9.90;62.90;;;;;;5061336;28;20041;-79
2022/09/30 07:16:15;;;;;;;10.60;9.57;;;10.00;63.10;;;;;;5033616;28;20030;-79
2022/09/30 07:18:42;;;;;;;11.32;10.23;;;10.00;63.10;;;;;;5039688;28;20029;-84
2022/09/30 07:21:14;;;;;;;10.80;9.80;;;10.10;63.30;;;;;;5034356;28;20483;-77
2022/09/30 07:23:44;;;;;;;11.20;10.05;;;10.10;63.30;;;;;;5045232;28;20036;-79
2022/09/30 07:26:10;;;;;;;11.23;10.13;;;10.10;63.30;;;;;;5057815;28;20051;-78
2022/09/30 07:28:38;;;;;;;10.45;9.45;;;10.20;63.50;;;;;;5047929;28;20045;-77
2022/09/30 07:31:15;;;;;;;11.40;10.30;;;10.20;63.60;;;;;;5037210;28;20472;-77
2022/09/30 07:33:43;;;;;;;10.27;9.27;;;10.20;63.80;;;;;;5048354;28;20040;-79
2022/09/30 07:36:11;;;;;;;10.80;9.80;;;10.30;63.90;;;;;;5040272;28;20297;-83
2022/09/30 07:38:39;;;;;;;11.10;10.07;;;10.30;64.00;;;;;;5043794;28;20036;-81
2022/09/30 07:41:07;;;;;;;10.98;9.93;;;10.30;64.10;;;;;;5039147;28;20507;-80
2022/09/30 07:43:37;;;;;;;11.23;10.13;;;10.40;64.30;;;;;;5039849;28;20094;-79
2022/09/30 07:46:04;;;;;;;10.50;9.40;;;10.40;64.40;;;;;;5028338;28;20708;-80
2022/09/30 07:48:43;;;;;;;11.85;10.65;;;10.50;64.50;;;;;;5040801;28;20480;-79
2022/09/30 07:51:14;;;;;;;11.38;10.27;;;10.50;64.60;;;;;;5053359;28;20029;-82
2022/09/30 07:53:42;;;;;;;11.25;10.10;;;10.70;64.90;;;;;;5066232;28;20142;-84
2022/09/30 07:56:10;;;;;;;10.38;9.40;;;10.80;65.00;;;;;;5060060;28;20129;-79
2022/09/30 07:58:36;;;;;;;9.98;8.95;;;10.90;65.00;;;;;;5057524;28;20117;-79
2022/09/30 08:01:05;;;;;;;10.52;9.50;;;11.10;65.20;;;;;;5061891;28;20116;-81
2022/09/30 08:03:34;;;;;;;8.95;8.05;;;11.20;65.30;;;;;;5070918;28;20104;-80
2022/09/30 08:06:17;;;;;;;8.90;8.10;;;11.30;65.40;;;;;;5049769;28;20488;-80
2022/09/30 08:08:44;;;;;;;11.88;8.70;;;11.40;65.60;;;;;;5048817;28;20412;-81
2022/09/30 08:11:11;;;;;;;9.35;7.72;;;11.50;65.60;;;;;;5045914;28;20045;-78
2022/09/30 08:13:37;;;;;;;8.88;7.20;;;11.50;65.60;;;;;;5039550;28;20094;-76
2022/09/30 08:16:04;;;;;;;8.70;7.28;;;11.60;65.80;;;;;;5052825;28;20114;-77
2022/09/30 08:18:30;;;;;;;9.43;7.38;;;11.70;66.10;;;;;;5047128;28;20503;-83
2022/09/30 08:21:03;;;;;;;7.70;7.00;;;11.70;66.10;;;;;;5052069;28;20455;-77
2022/09/30 08:23:30;;;;;;;8.20;6.18;;;11.70;66.30;;;;;;5050533;28;20044;-80
2022/09/30 08:26:04;;;;;;;8.35;6.90;;;11.70;66.20;;;;;;5053668;28;20029;-80
2022/09/30 08:28:31;;;;;;;6.60;5.97;;;11.80;66.60;;;;;;5043189;28;20059;-80
2022/09/30 08:31:12;;;;;;;6.80;6.10;;;11.80;66.60;;;;;;5031987;28;20051;-79
2022/09/30 08:33:39;;;;;;;6.35;5.75;;;11.90;67.00;;;;;;5030323;28;20055;-80
2022/09/30 08:36:12;;;;;;;6.65;5.60;;;11.90;66.90;;;;;;5048187;28;20037;-79
2022/09/30 08:38:38;;;;;;;4.75;4.35;;;12.00;67.00;;;;;;5032042;28;20033;-78
2022/09/30 08:41:22;;;;;;;5.75;5.20;;;12.10;67.10;;;;;;5048849;28;20134;-80
2022/09/30 08:44:19;;;;;;;5.57;5.00;;;12.20;67.20;;;;;;5047502;28;20033;-80
2022/09/30 08:46:48;;;;;;;5.18;4.70;;;12.30;67.40;;;;;;5045870;28;20040;-80
2022/09/30 08:49:20;;;;;;;6.13;5.10;;;12.40;67.40;;;;;;5037587;28;20099;-81
2022/09/30 08:51:48;;;;;;;6.63;4.00;;;12.40;67.40;;;;;;5058139;28;20039;-79
2022/09/30 08:54:18;;;;;;;6.05;4.75;;;12.50;67.50;;;;;;5046939;28;20049;-76
2022/09/30 08:56:45;;;;;;;6.72;5.20;;;12.60;67.60;;;;;;5051904;28;20032;-76
2022/09/30 08:59:33;;;;;;;3.80;3.50;;;12.70;67.60;;;;;;5051171;28;20037;-75
2022/09/30 09:02:14;;;;;;;4.47;3.47;;;12.80;67.80;;;;;;5025084;28;20029;-76
2022/09/30 09:04:43;;;;;;;5.00;3.17;;;12.90;67.80;;;;;;5044988;28;20037;-76
2022/09/30 09:07:43;;;;;;;5.03;3.20;;;12.90;67.70;;;;;;5057697;28;20051;-75
2022/09/30 09:10:49;;;;;;;3.97;2.95;;;13.00;68.10;;;;;;5042111;28;20172;-78
2022/09/30 09:13:18;;;;;;;3.88;2.95;;;13.00;68.10;;;;;;5025874;28;20440;-76
2022/09/30 09:16:15;;;;;;;5.03;2.90;;;13.00;67.90;;;;;;5050231;28;20128;-77
2022/09/30 09:18:51;;;;;;;3.72;2.90;;;13.10;68.10;;;;;;5027890;28;20520;-77
2022/09/30 09:21:22;;;;;;;4.72;3.58;;;13.20;68.00;;;;;;5035365;28;20037;-77
2022/09/30 09:23:51;;;;;;;3.25;2.50;;;13.30;68.00;;;;;;5040131;28;20038;-77
2022/09/30 09:26:17;;;;;;;6.70;3.65;;;13.40;68.00;;;;;;5047699;28;20025;-76
2022/09/30 09:29:08;;;;;;;5.85;2.95;;;13.50;68.10;;;;;;5043778;28;20064;-77
2022/09/30 09:31:34;;;;;;;3.72;2.65;;;13.60;68.20;;;;;;5027698;28;20037;-77
2022/09/30 09:34:08;;;;;;;3.92;2.90;;;13.70;68.10;;;;;;5046894;28;20546;-77
2022/09/30 09:36:56;;;;;;;2.55;2.35;;;13.80;68.10;;;;;;5045296;28;20128;-78
2022/09/30 09:40:03;;;;;;;7.53;2.42;;;14.00;68.20;;;;;;5030213;28;20083;-77
2022/09/30 09:42:32;;;;;;;3.30;3.00;;;14.20;68.10;;;;;;5041133;28;20033;-76
2022/09/30 09:45:10;;;;;;;2.50;2.17;;;14.40;67.90;;;;;;5045680;28;20129;-78
2022/09/30 09:47:38;;;;;;;4.28;2.63;;;14.60;67.90;;;;;;5044373;28;20029;-78
2022/09/30 09:50:16;;;;;;;3.10;2.33;;;14.70;67.80;;;;;;5039772;28;20041;-78
2022/09/30 09:52:59;;;;;;;3.50;2.47;;;14.90;67.80;;;;;;5029539;28;20060;-77
2022/09/30 09:55:26;;;;;;;5.85;3.15;;;14.90;67.50;;;;;;5043617;28;20052;-78
2022/09/30 09:58:12;;;;;;;4.45;2.78;;;15.00;67.50;;;;;;5041373;28;20036;-78
2022/09/30 10:03:20;;;;;;;3.53;2.42;;;15.10;67.50;;;;;;5041682;28;20037;-78
2022/09/30 10:06:08;;;;;;;3.72;2.42;;;15.10;67.90;;;;;;5045723;28;20582;-77
2022/09/30 10:08:38;;;;;;;4.55;3.00;;;15.10;67.40;;;;;;5042306;28;20048;-77
2022/09/30 10:11:26;;;;;;;4.40;2.47;;;15.10;67.30;;;;;;5047251;28;20021;-77
2022/09/30 10:13:56;;;;;;;4.40;2.30;;;15.10;67.40;;;;;;5038228;28;20026;-76
2022/09/30 10:16:36;;;;;;;3.33;2.15;;;15.10;67.40;;;;;;5037862;28;20025;-75
2022/09/30 10:19:17;;;;;;;2.63;2.28;;;15.10;67.30;;;;;;5032831;28;20413;-78
2022/09/30 10:21:43;;;;;;;3.70;2.38;;;15.20;67.30;;;;;;5043791;28;20400;-76
2022/09/30 10:24:28;;;;;;;3.92;2.40;;;15.30;67.40;;;;;;5029259;28;20041;-77
2022/09/30 10:26:54;;;;;;;5.03;2.95;;;15.40;67.20;;;;;;5044949;28;20035;-77
2022/09/30 10:29:28;;;;;;;2.80;2.20;;;15.60;67.30;;;;;;5054334;28;20041;-76
2022/09/30 10:31:56;;;;;;;5.88;2.28;;;15.80;67.20;;;;;;5049341;28;20032;-78
2022/09/30 10:34:37;;;;;;;3.92;2.65;;;15.90;67.00;;;;;;5033910;28;20033;-77
2022/09/30 10:37:23;;;;;;;3.22;1.85;;;16.10;66.80;;;;;;5032103;28;20052;-77
2022/09/30 10:40:00;;;;;;;3.30;2.25;;;16.40;66.80;;;;;;5049590;28;20095;-77
2022/09/30 10:42:31;;;;;;;2.92;2.72;;;16.50;66.40;;;;;;5051123;28;20086;-76
2022/09/30 10:45:05;;;;;;;5.43;2.22;;;16.70;66.30;;;;;;5056112;28;20084;-77
2022/09/30 10:47:32;;;;;;;3.58;2.40;;;16.90;66.20;;;;;;5044817;28;20063;-76
2022/09/30 10:50:10;;;;;;;5.10;2.38;;;17.10;66.10;;;;;;5044145;28;20135;-77
2022/09/30 10:52:46;;;;;;;2.30;2.00;;;17.30;66.00;;;;;;5042352;28;20021;-76
2022/09/30 10:55:19;;;;;;;3.60;2.45;;;17.40;65.80;;;;;;5061963;28;20580;-77
2022/09/30 10:57:46;;;;;;;4.57;2.58;;;17.50;65.60;;;;;;5037871;28;20026;-77
2022/09/30 11:00:20;;;;;;;3.72;2.25;;;17.60;65.60;;;;;;5050334;28;20037;-79
2022/09/30 11:03:10;;;;;;;2.70;2.05;;;17.70;65.40;;;;;;5041273;28;20033;-76
2022/09/30 11:05:40;;;;;;;3.58;1.80;;;17.80;65.20;;;;;;5038028;28;20041;-76
2022/09/30 11:08:25;;;;;;;3.97;2.50;;;17.90;65.30;;;;;;5049082;28;20044;-80
2022/09/30 11:11:13;;;;;;;8.02;3.17;;;17.90;65.10;;;;;;5050587;28;20082;-75
2022/09/30 11:14:12;;;;;;;3.35;2.03;;;18.00;65.00;;;;;;5024490;28;20041;-76
2022/09/30 11:17:00;;;;;;;5.22;2.30;;;18.00;64.90;;;;;;5040270;28;20029;-76
2022/09/30 11:19:40;;;;;;;7.30;2.05;;;18.00;64.80;;;;;;5045477;28;20040;-76
2022/09/30 11:22:33;;;;;;;4.22;2.05;;;18.00;64.80;;;;;;5046556;28;20037;-76
2022/09/30 11:25:00;;;;;;;4.43;2.13;;;17.90;64.50;;;;;;5049734;28;20045;-77
2022/09/30 11:27:46;;;;;;;2.15;1.90;;;17.90;64.70;;;;;;5052386;28;20035;-78
2022/09/30 11:30:37;;;;;;;2.60;1.88;;;17.90;64.60;;;;;;5049194;28;20040;-77
2022/09/30 11:33:12;;;;;;;6.60;3.05;;;17.80;64.50;;;;;;5056531;28;20442;-78
2022/09/30 11:36:14;;;;;;;5.03;2.03;;;17.80;64.70;;;;;;5050121;28;20035;-79
2022/09/30 11:38:58;;;;;;;3.53;2.20;;;17.70;64.60;;;;;;5031673;28;20044;-79
2022/09/30 11:41:32;;;;;;;5.38;1.98;;;17.70;64.60;;;;;;5048222;28;20224;-78
2022/09/30 11:44:31;;;;;;;4.07;2.03;;;17.60;64.60;;;;;;5050503;28;20522;-79
2022/09/30 11:47:07;;;;;;;4.25;1.95;;;17.50;64.60;;;;;;5045580;28;20048;-79
2022/09/30 11:49:53;;;;;;;3.33;1.80;;;17.50;64.80;;;;;;5044166;28;20045;-79
2022/09/30 11:53:08;;;;;;;4.80;1.95;;;17.50;64.90;;;;;;5048273;28;20031;-79
2022/09/30 11:55:35;;;;;;;3.08;1.88;;;17.40;64.90;;;;;;5052834;28;20036;-78
2022/09/30 11:58:04;;;;;;;5.38;2.75;;;17.40;64.90;;;;;;5038374;28;20024;-79
2022/09/30 12:00:35;;;;;;;3.83;2.33;;;17.30;64.80;;;;;;5048477;28;20059;-78
2022/09/30 12:03:12;;;;;;;3.00;2.10;;;17.30;65.00;;;;;;5046135;28;20460;-79
2022/09/30 12:05:53;;;;;;;3.42;2.10;;;17.30;65.00;;;;;;5009098;28;20151;-77
2022/09/30 12:08:49;;;;;;;4.13;2.10;;;17.30;65.10;;;;;;5028643;28;20041;-80
2022/09/30 12:11:25;;;;;;;2.05;1.90;;;17.30;65.20;;;;;;5044112;28;20033;-78
2022/09/30 12:13:59;;;;;;;3.53;2.13;;;17.20;65.10;;;;;;5039777;28;20037;-77
2022/09/30 12:16:29;;;;;;;3.55;1.88;;;17.20;65.10;;;;;;5046638;28;20025;-77
2022/09/30 12:19:12;;;;;;;3.13;1.80;;;17.20;65.20;;;;;;5041481;28;20385;-77
2022/09/30 12:21:41;;;;;;;4.65;1.83;;;17.20;65.30;;;;;;5026361;28;20030;-78
2022/09/30 12:24:21;;;;;;;2.38;1.67;;;17.10;65.20;;;;;;5046067;28;20036;-78
2022/09/30 12:26:47;;;;;;;2.50;1.70;;;17.10;65.40;;;;;;5047262;28;20394;-78
2022/09/30 12:32:28;;;;;;;2.08;1.48;;;17.10;65.60;;;;;;5046665;28;20447;-78
2022/09/30 12:35:02;;;;;;;2.83;1.83;;;17.10;65.70;;;;;;5048238;28;20305;-78
2022/09/30 12:38:03;;;;;;;4.55;2.00;;;17.10;65.60;;;;;;5046472;28;20634;-78
2022/09/30 12:40:50;;;;;;;4.22;1.83;;;17.10;65.40;;;;;;5023502;28;20052;-81
2022/09/30 12:43:47;;;;;;;4.07;2.00;;;17.20;65.50;;;;;;5048378;28;20062;-78
2022/09/30 12:46:57;;;;;;;2.15;1.60;;;17.20;65.40;;;;;;5052408;28;20076;-78
2022/09/30 12:49:35;;;;;;;2.17;1.70;;;17.20;65.40;;;;;;5028787;28;20120;-79
2022/09/30 12:52:11;;;;;;;4.75;1.50;;;17.20;65.40;;;;;;5036587;28;20093;-78
2022/09/30 12:54:46;;;;;;;1.70;1.35;;;17.20;65.40;;;;;;5051951;28;20105;-77
2022/09/30 12:57:24;;;;;;;2.72;1.38;;;17.20;65.60;;;;;;5052238;28;20435;-77
2022/09/30 12:59:55;;;;;;;3.00;1.33;;;17.10;65.60;;;;;;5048981;28;20086;-78
2022/09/30 13:02:35;;;;;;;4.75;1.70;;;17.10;65.70;;;;;;5047804;28;20037;-79
2022/09/30 13:05:27;;;;;;;3.45;1.30;;;17.00;65.60;;;;;;5038913;28;20392;-78
2022/09/30 13:08:11;;;;;;;2.90;1.48;;;17.00;65.60;;;;;;5037762;28;20037;-79
2022/09/30 13:10:37;;;;;;;4.35;1.90;;;17.00;65.60;;;;;;5047995;28;20029;-78
2022/09/30 13:13:09;;;;;;;3.15;1.55;;;17.00;65.60;;;;;;5045531;28;20039;-78
2022/09/30 13:15:35;;;;;;;1.45;1.10;;;17.00;65.60;;;;;;5046986;28;20040;-77
2022/09/30 13:18:19;;;;;;;4.10;1.52;;;17.00;65.60;;;;;;5044165;28;20045;-78
2022/09/30 13:20:53;;;;;;;2.47;1.20;;;17.00;65.60;;;;;;5030269;28;20044;-77
2022/09/30 13:23:36;;;;;;;2.63;1.38;;;17.10;65.70;;;;;;5044490;28;20025;-78
2022/09/30 13:26:05;;;;;;;4.72;1.35;;;17.10;65.70;;;;;;5063395;28;20186;-78
2022/09/30 13:28:38;;;;;;;3.58;1.60;;;17.10;65.60;;;;;;5047286;28;20504;-79
2022/09/30 13:31:13;;;;;;;3.47;1.33;;;17.20;65.80;;;;;;5036644;28;20028;-78
2022/09/30 13:33:42;;;;;;;4.70;1.60;;;17.20;65.50;;;;;;5045591;28;20033;-78
2022/09/30 13:36:39;;;;;;;2.30;1.38;;;17.30;65.50;;;;;;5056070;28;20052;-78
2022/09/30 13:39:17;;;;;;;2.42;1.30;;;17.40;65.50;;;;;;5036684;28;20104;-79
2022/09/30 13:41:47;;;;;;;3.25;1.45;;;17.50;65.40;;;;;;5045312;28;20416;-79
2022/09/30 13:44:23;;;;;;;1.55;1.10;;;17.60;65.40;;;;;;5047413;28;20098;-77
2022/09/30 13:46:54;;;;;;;4.97;1.27;;;17.70;65.40;;;;;;5044704;28;20378;-78